createdAt,value
2018-07-15T03:17:08.866Z,12.00
2018-07-15T03:18:08.856Z,8.00
2018-07-15T03:19:08.854Z,12.00
2018-07-15T03:20:08.845Z,12.00
2018-07-15T03:21:08.843Z,16.00
2018-07-15T03:22:08.848Z,16.00
2018-07-15T03:23:08.847Z,16.00
2018-07-15T03:24:08.844Z,20.00
2018-07-15T03:25:08.850Z,20.00
2018-07-15T03:26:08.852Z,24.00
2018-07-15T03:27:08.883Z,28.00
2018-07-15T03:28:08.934Z,32.00
2018-07-15T03:29:08.921Z,32.00
2018-07-15T03:30:08.857Z,36.00
2018-07-15T03:31:08.856Z,40.00
2018-07-15T03:32:08.859Z,44.00
2018-07-15T03:33:08.866Z,44.00
2018-07-15T03:34:08.991Z,52.00
2018-07-15T03:35:08.862Z,52.00
2018-07-15T03:36:08.867Z,60.00
2018-07-15T03:37:08.879Z,68.00
2018-07-15T03:38:08.876Z,68.00
2018-07-15T03:39:08.887Z,76.00
2018-07-15T03:40:08.885Z,84.00
2018-07-15T03:41:08.886Z,88.00
2018-07-15T03:42:08.888Z,100.00
2018-07-15T03:43:08.887Z,104.00
2018-07-15T03:44:08.891Z,120.00
2018-07-15T03:45:08.895Z,128.00
2018-07-15T03:46:08.892Z,136.00
2018-07-15T03:47:08.905Z,148.00
2018-07-15T03:48:08.900Z,164.00
2018-07-15T03:49:08.909Z,172.00
2018-07-15T03:50:08.916Z,184.00
2018-07-15T03:51:08.913Z,200.00
2018-07-15T03:52:08.915Z,216.00
2018-07-15T03:53:08.920Z,232.00
2018-07-15T03:54:08.921Z,252.00
2018-07-15T03:55:08.918Z,276.00
2018-07-15T03:56:08.920Z,304.00
2018-07-15T03:57:08.929Z,348.00
2018-07-15T03:58:08.936Z,340.00
2018-07-15T03:59:08.933Z,380.00
2018-07-15T04:00:08.937Z,400.00
2018-07-15T04:01:08.951Z,428.00
2018-07-15T04:02:08.943Z,456.00
2018-07-15T04:03:08.956Z,496.00
2018-07-15T04:04:08.953Z,528.00
2018-07-15T04:05:08.956Z,560.00
2018-07-15T04:06:08.957Z,608.00
2018-07-15T04:07:08.961Z,668.00
2018-07-15T04:08:08.963Z,664.00
2018-07-15T04:09:08.960Z,696.00
2018-07-15T04:10:08.968Z,792.00
2018-07-15T04:11:08.974Z,768.00
2018-07-15T04:12:08.977Z,828.00
2018-07-15T04:13:08.981Z,784.00
2018-07-15T04:14:08.982Z,640.00
2018-07-15T04:15:08.982Z,948.00
2018-07-15T04:16:08.986Z,920.00
2018-07-15T04:17:08.994Z,984.00
2018-07-15T04:18:08.997Z,1152.00
2018-07-15T04:19:09.002Z,1420.00
2018-07-15T04:20:09.006Z,1472.00
2018-07-15T04:21:09.007Z,1164.00
2018-07-15T04:22:09.016Z,1240.00
2018-07-15T04:23:09.017Z,1284.00
2018-07-15T04:24:09.014Z,1376.00
2018-07-15T04:25:09.019Z,1564.00
2018-07-15T04:26:09.022Z,1428.00
2018-07-15T04:27:09.035Z,1696.00
2018-07-15T04:28:09.051Z,1820.00
2018-07-15T04:29:09.039Z,1552.00
2018-07-15T04:30:09.041Z,1452.00
2018-07-15T04:31:09.049Z,1396.00
2018-07-15T04:32:09.048Z,1264.00
2018-07-15T04:33:09.054Z,1140.00
2018-07-15T04:34:09.062Z,1176.00
2018-07-15T04:35:09.060Z,1200.00
2018-07-15T04:36:09.064Z,1184.00
2018-07-15T04:37:09.065Z,1164.00
2018-07-15T04:38:09.075Z,1240.00
2018-07-15T04:39:09.080Z,2408.00
2018-07-15T04:40:09.078Z,3484.00
2018-07-15T04:41:09.084Z,3432.00
2018-07-15T04:42:09.089Z,3088.00
2018-07-15T04:43:09.097Z,3116.00
2018-07-15T04:44:09.099Z,4052.00
2018-07-15T04:45:09.103Z,6532.00
2018-07-15T04:46:09.110Z,8192.00
2018-07-15T04:47:09.118Z,5840.00
2018-07-15T04:48:09.119Z,1580.00
2018-07-15T04:49:09.119Z,908.00
2018-07-15T04:50:09.134Z,836.00
2018-07-15T04:51:09.130Z,688.00
2018-07-15T04:52:09.155Z,716.00
2018-07-15T04:53:09.146Z,696.00
2018-07-15T04:54:09.148Z,556.00
2018-07-15T04:55:09.153Z,532.00
2018-07-15T04:56:09.154Z,500.00
2018-07-15T04:57:09.171Z,504.00
2018-07-15T04:58:09.172Z,488.00
2018-07-15T04:59:09.180Z,504.00
2018-07-15T05:00:09.183Z,524.00
2018-07-15T05:01:09.184Z,528.00
2018-07-15T05:02:09.317Z,524.00
2018-07-15T05:03:09.195Z,520.00
2018-07-15T05:04:09.195Z,532.00
2018-07-15T05:05:09.198Z,552.00
2018-07-15T05:06:09.202Z,568.00
2018-07-15T05:07:09.205Z,604.00
2018-07-15T05:08:09.218Z,620.00
2018-07-15T05:09:09.219Z,672.00
2018-07-15T05:10:09.228Z,740.00
2018-07-15T05:11:09.236Z,868.00
2018-07-15T05:12:09.237Z,1024.00
2018-07-15T05:13:09.232Z,1144.00
2018-07-15T05:14:09.241Z,1240.00
2018-07-15T05:15:09.243Z,1516.00
2018-07-15T05:16:09.252Z,1800.00
2018-07-15T05:17:09.256Z,2060.00
2018-07-15T05:18:09.264Z,2516.00
2018-07-15T05:19:09.266Z,3768.00
2018-07-15T05:20:09.270Z,3804.00
2018-07-15T05:21:09.271Z,10160.00
2018-07-15T05:22:09.284Z,23200.00
2018-07-15T05:23:09.278Z,27872.00
2018-07-15T05:24:09.278Z,30240.00
2018-07-15T05:25:09.288Z,25632.00
2018-07-15T05:26:09.292Z,21600.00
2018-07-15T05:27:09.302Z,16704.00
2018-07-15T05:28:09.315Z,14112.00
2018-07-15T05:29:09.458Z,31872.00
2018-07-15T05:30:09.321Z,30272.00
2018-07-15T05:31:09.351Z,34304.00
2018-07-15T05:32:09.341Z,33312.00
2018-07-15T05:33:09.340Z,31456.00
2018-07-15T05:34:09.342Z,27904.00
2018-07-15T05:35:09.355Z,18688.00
2018-07-15T05:36:09.364Z,19488.00
2018-07-15T05:37:09.375Z,12796.00
2018-07-15T05:38:09.385Z,14624.00
2018-07-15T05:39:09.384Z,13984.00
2018-07-15T05:40:09.397Z,23040.00
2018-07-15T05:41:09.407Z,26912.00
2018-07-15T05:42:09.426Z,8124.00
2018-07-15T05:43:09.442Z,4460.00
2018-07-15T05:44:09.667Z,7156.00
2018-07-15T05:45:09.435Z,42528.00
2018-07-15T05:46:09.444Z,1528.00
2018-07-15T05:47:09.459Z,53856.00
2018-07-15T05:48:09.464Z,22656.00
2018-07-15T05:49:09.477Z,46528.00
2018-07-15T05:50:09.484Z,40416.00
2018-07-15T05:51:09.493Z,6208.00
2018-07-15T05:52:09.513Z,8104.00
2018-07-15T05:53:09.510Z,6080.00
2018-07-15T05:54:09.699Z,6336.00
2018-07-15T05:55:09.526Z,6080.00
2018-07-15T05:56:09.533Z,5568.00
2018-07-15T05:57:09.545Z,7012.00
2018-07-15T05:58:09.561Z,20864.00
2018-07-15T05:59:09.567Z,6244.00
2018-07-15T06:00:09.564Z,5628.00
2018-07-15T06:01:09.583Z,5504.00
2018-07-15T06:02:09.593Z,4680.00
2018-07-15T06:03:09.602Z,5020.00
2018-07-15T06:04:09.609Z,4576.00
2018-07-15T06:05:09.619Z,3684.00
2018-07-15T06:06:09.623Z,4168.00
2018-07-15T06:07:09.713Z,3876.00
2018-07-15T06:08:09.654Z,3868.00
2018-07-15T06:09:09.661Z,4760.00
2018-07-15T06:10:09.668Z,3916.00
2018-07-15T06:11:09.674Z,4796.00
2018-07-15T06:12:09.686Z,3404.00
2018-07-15T06:13:09.692Z,2684.00
2018-07-15T06:14:09.699Z,2364.00
2018-07-15T06:15:09.710Z,2712.00
2018-07-15T06:16:09.717Z,2100.00
2018-07-15T06:17:09.791Z,2192.00
2018-07-15T06:18:09.743Z,2052.00
2018-07-15T06:19:09.747Z,2080.00
2018-07-15T06:20:09.758Z,2292.00
2018-07-15T06:21:09.769Z,2692.00
2018-07-15T06:22:09.773Z,2720.00
2018-07-15T06:23:09.783Z,2820.00
2018-07-15T06:24:09.845Z,2852.00
2018-07-15T06:25:09.802Z,2932.00
2018-07-15T06:26:09.808Z,3032.00
2018-07-15T06:27:09.810Z,2960.00
2018-07-15T06:28:09.829Z,3332.00
2018-07-15T06:29:09.825Z,2848.00
2018-07-15T06:30:09.844Z,2808.00
2018-07-15T06:31:09.851Z,2992.00
2018-07-15T06:32:09.851Z,2900.00
2018-07-15T06:33:09.870Z,2868.00
2018-07-15T06:34:09.895Z,2800.00
2018-07-15T06:35:09.883Z,2728.00
2018-07-15T06:36:09.889Z,2824.00
2018-07-15T06:37:09.888Z,2872.00
2018-07-15T06:38:09.908Z,2696.00
2018-07-15T06:39:09.905Z,2572.00
2018-07-15T06:40:09.915Z,2472.00
2018-07-15T06:41:09.918Z,2380.00
2018-07-15T06:42:09.934Z,2300.00
2018-07-15T06:43:09.941Z,2420.00
2018-07-15T06:44:09.943Z,2512.00
2018-07-15T06:45:09.953Z,2728.00
2018-07-15T06:46:09.983Z,2868.00
2018-07-15T06:47:09.966Z,3052.00
2018-07-15T06:48:09.995Z,3400.00
2018-07-15T06:49:09.987Z,3292.00
2018-07-15T06:50:09.984Z,3392.00
2018-07-15T06:51:09.989Z,3652.00
2018-07-15T06:52:10.033Z,3764.00
2018-07-15T06:53:10.019Z,3964.00
2018-07-15T06:54:10.011Z,3988.00
2018-07-15T06:55:10.033Z,4176.00
2018-07-15T06:56:10.045Z,4216.00
2018-07-15T06:57:10.043Z,4224.00
2018-07-15T06:58:10.046Z,5216.00
2018-07-15T06:59:10.059Z,4616.00
2018-07-15T07:00:10.065Z,5248.00
2018-07-15T07:01:10.071Z,4464.00
2018-07-15T07:02:10.080Z,4200.00
2018-07-15T07:03:10.087Z,4532.00
2018-07-15T07:04:10.091Z,4596.00
2018-07-15T07:05:10.108Z,4808.00
2018-07-15T07:06:10.116Z,3480.00
2018-07-15T07:07:10.178Z,4348.00
2018-07-15T07:08:10.128Z,4036.00
2018-07-15T07:09:10.139Z,4220.00
2018-07-15T07:10:10.137Z,4704.00
2018-07-15T07:11:10.144Z,3904.00
2018-07-15T07:12:10.148Z,3348.00
2018-07-15T07:13:10.165Z,3328.00
2018-07-15T07:14:10.172Z,2796.00
2018-07-15T07:15:10.174Z,2924.00
2018-07-15T07:16:10.182Z,2836.00
2018-07-15T07:17:10.190Z,2704.00
2018-07-15T07:18:10.191Z,2504.00
2018-07-15T07:19:10.208Z,2392.00
2018-07-15T07:20:10.215Z,2488.00
2018-07-15T07:21:10.225Z,2352.00
2018-07-15T07:22:10.234Z,2356.00
2018-07-15T07:23:10.236Z,2540.00
2018-07-15T07:24:10.243Z,2444.00
2018-07-15T07:25:10.253Z,2532.00
2018-07-15T07:26:10.263Z,2808.00
2018-07-15T07:27:10.264Z,2540.00
2018-07-15T07:28:10.273Z,2624.00
2018-07-15T07:29:10.277Z,2696.00
2018-07-15T07:30:10.287Z,2916.00
2018-07-15T07:31:10.294Z,3024.00
2018-07-15T07:32:10.306Z,3184.00
2018-07-15T07:33:10.315Z,3068.00
2018-07-15T07:34:10.318Z,3200.00
2018-07-15T07:35:10.325Z,3236.00
2018-07-15T07:36:10.332Z,3388.00
2018-07-15T07:37:10.345Z,3160.00
2018-07-15T07:38:10.351Z,3444.00
2018-07-15T07:39:10.348Z,3472.00
2018-07-15T07:40:10.362Z,3760.00
2018-07-15T07:41:10.374Z,3504.00
2018-07-15T07:42:10.372Z,3396.00
2018-07-15T07:43:10.382Z,3108.00
2018-07-15T07:44:10.389Z,3236.00
2018-07-15T07:45:10.396Z,3224.00
2018-07-15T07:46:10.407Z,3176.00
2018-07-15T07:47:10.427Z,3644.00
2018-07-15T07:48:10.419Z,3264.00
2018-07-15T07:49:10.425Z,3152.00
2018-07-15T07:50:10.436Z,4060.00
2018-07-15T07:51:10.432Z,2648.00
2018-07-15T07:52:10.447Z,2584.00
2018-07-15T07:53:10.489Z,2664.00
2018-07-15T07:54:10.454Z,2232.00
2018-07-15T07:55:10.469Z,2448.00
2018-07-15T07:56:10.475Z,2540.00
2018-07-15T07:57:10.480Z,2384.00
2018-07-15T07:58:10.486Z,2376.00
2018-07-15T07:59:10.490Z,2364.00
2018-07-15T08:00:10.502Z,2292.00
2018-07-15T08:01:10.505Z,3060.00
2018-07-15T08:02:10.516Z,2132.00
2018-07-15T08:03:10.522Z,2148.00
2018-07-15T08:04:10.533Z,2204.00
2018-07-15T08:05:10.533Z,1980.00
2018-07-15T08:06:10.544Z,2244.00
2018-07-15T08:07:10.547Z,2132.00
2018-07-15T08:08:10.557Z,2296.00
2018-07-15T08:09:10.587Z,2036.00
2018-07-15T08:10:10.610Z,2120.00
2018-07-15T08:11:10.621Z,2172.00
2018-07-15T08:12:10.592Z,2116.00
2018-07-15T08:13:10.639Z,2124.00
2018-07-15T08:14:10.604Z,2220.00
2018-07-15T08:15:10.652Z,2256.00
2018-07-15T08:16:10.612Z,2280.00
2018-07-15T08:17:10.623Z,2156.00
2018-07-15T08:18:10.626Z,2532.00
2018-07-15T08:19:10.644Z,2332.00
2018-07-15T08:20:10.649Z,2328.00
2018-07-15T08:21:10.655Z,2396.00
2018-07-15T08:22:10.714Z,2416.00
2018-07-15T08:23:10.666Z,2400.00
2018-07-15T08:24:10.696Z,2324.00
2018-07-15T08:25:10.700Z,2452.00
2018-07-15T08:26:10.715Z,2464.00
2018-07-15T08:27:10.698Z,2456.00
2018-07-15T08:28:10.738Z,2544.00
2018-07-15T08:29:10.709Z,2612.00
2018-07-15T08:30:10.709Z,2372.00
2018-07-15T08:31:10.753Z,2420.00
2018-07-15T08:32:10.742Z,2268.00
2018-07-15T08:33:20.162Z,2312.00
2018-07-15T08:35:04.197Z,2616.00
2018-07-15T08:36:04.160Z,2488.00
2018-07-15T08:37:04.166Z,2672.00
2018-07-15T08:38:04.206Z,2716.00
2018-07-15T08:39:04.210Z,2516.00
2018-07-15T08:40:04.173Z,2452.00
2018-07-15T08:41:04.171Z,2436.00
2018-07-15T08:42:04.181Z,2268.00
2018-07-15T08:43:04.183Z,2212.00
2018-07-15T08:44:04.211Z,2152.00
2018-07-15T08:45:04.201Z,2528.00
2018-07-15T08:46:04.252Z,1976.00
2018-07-15T08:47:04.217Z,1936.00
2018-07-15T08:48:04.245Z,1904.00
2018-07-15T08:49:04.447Z,1904.00
2018-07-15T08:50:04.261Z,1940.00
2018-07-15T08:51:04.277Z,1868.00
2018-07-15T08:52:04.250Z,1848.00
2018-07-15T08:53:04.313Z,1836.00
2018-07-15T08:54:04.321Z,1552.00
2018-07-15T08:55:04.281Z,1608.00
2018-07-15T08:56:04.350Z,1780.00
2018-07-15T08:57:04.287Z,1764.00
2018-07-15T08:58:04.517Z,1728.00
2018-07-15T08:59:04.321Z,1796.00
2018-07-15T09:00:04.324Z,1752.00
2018-07-15T09:01:04.380Z,1748.00
2018-07-15T09:02:04.354Z,1740.00
2018-07-15T09:03:04.332Z,1664.00
2018-07-15T09:04:04.350Z,1476.00
2018-07-15T09:05:04.374Z,1584.00
2018-07-15T09:06:04.367Z,1524.00
2018-07-15T09:07:04.366Z,1464.00
2018-07-15T09:08:04.376Z,1336.00
2018-07-15T09:09:04.383Z,1556.00
2018-07-15T09:10:04.379Z,1520.00
2018-07-15T09:11:04.411Z,1560.00
2018-07-15T09:12:04.538Z,1740.00
2018-07-15T09:13:05.282Z,1640.00
2018-07-15T09:14:04.423Z,1664.00
2018-07-15T09:15:04.421Z,1592.00
2018-07-15T09:16:04.448Z,1740.00
2018-07-15T09:17:04.552Z,1684.00
2018-07-15T09:18:04.441Z,1628.00
2018-07-15T09:19:04.470Z,1688.00
2018-07-15T09:20:04.467Z,1672.00
2018-07-15T09:21:04.742Z,1672.00
2018-07-15T09:22:04.471Z,1656.00
2018-07-15T09:23:04.495Z,1624.00
2018-07-15T09:24:04.521Z,1616.00
2018-07-15T09:25:04.493Z,1604.00
2018-07-15T09:26:04.497Z,1560.00
2018-07-15T09:27:04.502Z,1628.00
2018-07-15T09:28:04.510Z,1576.00
2018-07-15T09:29:04.527Z,988.00
2018-07-15T09:30:04.518Z,1608.00
2018-07-15T09:31:04.529Z,1576.00
2018-07-15T09:32:04.684Z,1556.00
2018-07-15T09:33:04.555Z,1560.00
2018-07-15T09:34:04.576Z,1540.00
2018-07-15T09:35:04.567Z,1520.00
2018-07-15T09:36:04.562Z,1552.00
2018-07-15T09:37:04.587Z,1512.00
2018-07-15T09:38:04.693Z,1500.00
2018-07-15T09:39:04.599Z,1448.00
2018-07-15T09:40:04.618Z,1484.00
2018-07-15T09:41:04.599Z,1492.00
2018-07-15T09:42:04.722Z,1460.00
2018-07-15T09:43:04.620Z,1452.00
2018-07-15T09:44:04.624Z,1460.00
2018-07-15T09:45:04.634Z,1412.00
2018-07-15T09:46:04.639Z,1412.00
2018-07-15T09:47:04.650Z,1400.00
2018-07-15T09:48:04.672Z,1396.00
2018-07-15T09:49:04.666Z,2028.00
2018-07-15T09:50:04.673Z,2028.00
2018-07-15T09:51:04.668Z,2028.00
2018-07-15T09:52:04.680Z,2044.00
2018-07-15T09:53:04.694Z,2064.00
2018-07-15T09:54:04.703Z,2084.00
2018-07-15T09:55:04.702Z,2108.00
2018-07-15T09:56:04.714Z,2140.00
2018-07-15T09:57:04.723Z,2168.00
2018-07-15T09:58:04.732Z,2204.00
2018-07-15T09:59:04.754Z,2252.00
2018-07-15T10:00:04.741Z,2324.00
2018-07-15T10:01:04.749Z,2412.00
2018-07-15T10:02:04.754Z,2500.00
2018-07-15T10:03:04.773Z,2608.00
2018-07-15T10:04:04.778Z,2720.00
2018-07-15T10:05:04.789Z,2768.00
2018-07-15T10:06:04.786Z,2800.00
2018-07-15T10:07:04.796Z,2812.00
2018-07-15T10:08:04.806Z,2804.00
2018-07-15T10:09:04.816Z,2880.00
2018-07-15T10:10:04.824Z,2736.00
2018-07-15T10:11:04.940Z,2788.00
2018-07-15T10:12:04.830Z,2720.00
2018-07-15T10:13:04.842Z,2648.00
2018-07-15T10:14:04.856Z,2600.00
2018-07-15T10:15:04.861Z,2588.00
2018-07-15T10:16:04.867Z,2552.00
2018-07-15T10:17:04.876Z,2524.00
2018-07-15T10:18:04.884Z,2492.00
2018-07-15T10:19:04.955Z,2452.00
2018-07-15T10:20:04.897Z,2440.00
2018-07-15T10:21:04.903Z,2420.00
2018-07-15T10:22:04.923Z,2284.00
2018-07-15T10:23:04.923Z,2232.00
2018-07-15T10:24:04.923Z,2204.00
2018-07-15T10:25:04.932Z,2184.00
2018-07-15T10:26:04.936Z,2144.00
2018-07-15T10:27:04.958Z,2116.00
2018-07-15T10:28:04.956Z,2140.00
2018-07-15T10:29:05.064Z,2156.00
2018-07-15T10:30:04.965Z,2176.00
2018-07-15T10:31:04.979Z,2212.00
2018-07-15T10:32:04.982Z,2248.00
2018-07-15T10:33:05.008Z,2252.00
2018-07-15T10:34:05.011Z,2264.00
2018-07-15T10:35:05.007Z,2264.00
2018-07-15T10:36:05.016Z,2308.00
2018-07-15T10:37:05.021Z,2336.00
2018-07-15T10:38:05.037Z,2332.00
2018-07-15T10:39:05.047Z,2340.00
2018-07-15T10:40:05.042Z,2244.00
2018-07-15T10:41:05.049Z,2328.00
2018-07-15T10:42:05.058Z,2328.00
2018-07-15T10:43:05.065Z,2324.00
2018-07-15T10:44:05.086Z,2320.00
2018-07-15T10:45:05.082Z,2308.00
2018-07-15T10:46:05.088Z,2284.00
2018-07-15T10:47:05.089Z,2248.00
2018-07-15T10:48:05.102Z,2220.00
2018-07-15T10:49:05.111Z,2180.00
2018-07-15T10:50:05.115Z,2144.00
2018-07-15T10:51:05.147Z,2112.00
2018-07-15T10:52:05.133Z,2076.00
2018-07-15T10:53:05.143Z,2052.00
2018-07-15T10:54:05.143Z,2028.00
2018-07-15T10:55:05.155Z,2008.00
2018-07-15T10:56:05.166Z,1996.00
2018-07-15T10:57:05.168Z,1968.00
2018-07-15T10:58:05.174Z,1924.00
2018-07-15T10:59:05.186Z,1928.00
2018-07-15T11:00:05.191Z,1912.00
2018-07-15T11:01:05.274Z,1884.00
2018-07-15T11:02:05.213Z,1732.00
2018-07-15T11:03:05.220Z,1628.00
2018-07-15T11:04:05.224Z,1612.00
2018-07-15T11:05:05.237Z,1516.00
2018-07-15T11:06:05.243Z,1464.00
2018-07-15T11:07:05.248Z,1448.00
2018-07-15T11:08:05.253Z,1388.00
2018-07-15T11:09:05.521Z,1424.00
2018-07-15T11:10:05.268Z,1436.00
2018-07-15T11:11:05.277Z,1360.00
2018-07-15T11:12:05.306Z,1312.00
2018-07-15T11:13:05.296Z,1368.00
2018-07-15T11:14:05.303Z,1424.00
2018-07-15T11:15:05.311Z,1520.00
2018-07-15T11:16:05.321Z,1528.00
2018-07-15T11:17:05.329Z,1560.00
2018-07-15T11:18:05.335Z,1568.00
2018-07-15T11:19:05.337Z,1548.00
2018-07-15T11:20:05.345Z,1504.00
2018-07-15T11:21:05.355Z,1504.00
2018-07-15T11:22:05.357Z,1536.00
2018-07-15T11:23:05.368Z,1572.00
2018-07-15T11:24:05.377Z,1684.00
2018-07-15T11:25:05.389Z,1772.00
2018-07-15T11:26:05.460Z,1808.00
2018-07-15T11:27:05.402Z,1836.00
2018-07-15T11:28:05.409Z,1888.00
2018-07-15T11:29:05.684Z,1916.00
2018-07-15T11:30:05.426Z,1944.00
2018-07-15T11:31:05.592Z,1960.00
2018-07-15T11:32:05.440Z,1996.00
2018-07-15T11:33:05.450Z,2016.00
2018-07-15T11:34:05.450Z,2040.00
2018-07-15T11:35:05.464Z,2088.00
2018-07-15T11:36:05.467Z,2112.00
2018-07-15T11:37:05.475Z,2140.00
2018-07-15T11:38:05.484Z,2164.00
2018-07-15T11:39:05.560Z,2192.00
2018-07-15T11:40:05.505Z,2216.00
2018-07-15T11:41:05.509Z,2240.00
2018-07-15T11:42:05.698Z,2264.00
2018-07-15T11:43:05.521Z,2280.00
2018-07-15T11:44:05.540Z,2304.00
2018-07-15T11:45:05.550Z,2312.00
2018-07-15T11:46:05.545Z,2320.00
2018-07-15T11:47:05.556Z,2332.00
2018-07-15T11:48:05.609Z,2336.00
2018-07-15T11:49:05.570Z,2328.00
2018-07-15T11:50:05.576Z,2328.00
2018-07-15T11:51:05.592Z,2324.00
2018-07-15T11:52:05.591Z,2316.00
2018-07-15T11:53:05.608Z,2304.00
2018-07-15T11:54:05.617Z,2292.00
2018-07-15T11:55:05.617Z,2284.00
2018-07-15T11:56:05.628Z,2272.00
2018-07-15T11:57:05.630Z,2268.00
2018-07-15T11:58:05.644Z,2260.00
2018-07-15T11:59:05.645Z,2256.00
2018-07-15T12:00:05.662Z,2256.00
2018-07-15T12:01:05.664Z,2248.00
2018-07-15T12:02:05.678Z,2248.00
2018-07-15T12:03:05.689Z,2248.00
2018-07-15T12:04:05.697Z,2252.00
2018-07-15T12:05:05.706Z,2244.00
2018-07-15T12:06:05.701Z,2236.00
2018-07-15T12:07:05.721Z,2236.00
2018-07-15T12:08:05.729Z,2232.00
2018-07-15T12:09:05.735Z,2228.00
2018-07-15T12:10:05.745Z,2228.00
2018-07-15T12:11:05.790Z,2220.00
2018-07-15T12:12:05.763Z,2224.00
2018-07-15T12:13:05.767Z,2224.00
2018-07-15T12:14:05.777Z,2220.00
2018-07-15T12:15:05.792Z,2228.00
2018-07-15T12:16:05.793Z,2228.00
2018-07-15T12:17:05.809Z,2232.00
2018-07-15T12:18:05.808Z,2232.00
2018-07-15T12:19:05.817Z,2236.00
2018-07-15T12:20:05.827Z,2232.00
2018-07-15T12:21:05.843Z,2224.00
2018-07-15T12:22:05.835Z,2220.00
2018-07-15T12:23:05.865Z,2216.00
2018-07-15T12:24:05.860Z,2204.00
2018-07-15T12:25:05.865Z,2192.00
2018-07-15T12:26:05.876Z,2184.00
2018-07-15T12:27:05.883Z,2176.00
2018-07-15T12:28:05.893Z,2160.00
2018-07-15T12:29:05.904Z,2148.00
2018-07-15T12:30:05.914Z,2136.00
2018-07-15T12:31:05.918Z,2124.00
2018-07-15T12:32:05.921Z,2116.00
2018-07-15T12:33:05.936Z,2104.00
2018-07-15T12:34:05.939Z,2104.00
2018-07-15T12:35:05.962Z,2092.00
2018-07-15T12:36:05.960Z,2088.00
2018-07-15T12:37:06.034Z,2088.00
2018-07-15T12:38:05.973Z,2084.00
2018-07-15T12:39:05.984Z,2084.00
2018-07-15T12:40:05.988Z,2080.00
2018-07-15T12:41:06.000Z,2076.00
2018-07-15T12:42:06.182Z,2076.00
2018-07-15T12:43:06.019Z,2076.00
2018-07-15T12:44:06.022Z,2068.00
2018-07-15T12:45:06.044Z,2064.00
2018-07-15T12:46:06.044Z,2056.00
2018-07-15T12:47:06.058Z,2056.00
2018-07-15T12:48:06.078Z,2056.00
2018-07-15T12:49:06.067Z,2060.00
2018-07-15T12:50:06.075Z,2068.00
2018-07-15T12:51:06.092Z,2072.00
2018-07-15T12:52:06.155Z,2080.00
2018-07-15T12:53:06.111Z,2088.00
2018-07-15T12:54:06.118Z,2092.00
2018-07-15T12:55:06.124Z,2104.00
2018-07-15T12:56:06.131Z,2112.00
2018-07-15T12:57:06.137Z,2128.00
2018-07-15T12:58:06.144Z,2144.00
2018-07-15T12:59:06.157Z,2156.00
2018-07-15T13:00:06.172Z,2168.00
2018-07-15T13:01:06.173Z,2180.00
2018-07-15T13:02:06.182Z,2192.00
2018-07-15T13:03:06.191Z,2208.00
2018-07-15T13:04:06.203Z,2232.00
2018-07-15T13:05:06.208Z,2240.00
2018-07-15T13:06:06.230Z,2256.00
2018-07-15T13:07:06.230Z,2272.00
2018-07-15T13:08:06.240Z,2296.00
2018-07-15T13:09:06.251Z,2308.00
2018-07-15T13:10:06.261Z,2320.00
2018-07-15T13:11:06.265Z,2332.00
2018-07-15T13:12:06.279Z,2336.00
2018-07-15T13:13:06.443Z,2340.00
2018-07-15T13:14:06.294Z,2344.00
2018-07-15T13:15:06.302Z,2352.00
2018-07-15T13:16:06.318Z,2352.00
2018-07-15T13:17:06.384Z,2352.00
2018-07-15T13:18:06.330Z,2352.00
2018-07-15T13:19:07.270Z,2336.00
2018-07-15T13:20:06.346Z,2252.00
2018-07-15T13:21:06.355Z,2216.00
2018-07-15T13:22:06.372Z,2220.00
2018-07-15T13:23:06.371Z,2144.00
2018-07-15T13:24:06.377Z,2080.00
2018-07-15T13:25:06.391Z,2044.00
2018-07-15T13:26:06.398Z,2028.00
2018-07-15T13:27:06.415Z,2012.00
2018-07-15T13:28:06.427Z,2020.00
2018-07-15T13:29:06.431Z,2044.00
2018-07-15T13:30:06.440Z,2068.00
2018-07-15T13:31:06.444Z,2112.00
2018-07-15T13:32:06.474Z,2164.00
2018-07-15T13:33:06.464Z,2220.00
2018-07-15T13:34:06.472Z,2272.00
2018-07-15T13:35:06.483Z,2316.00
2018-07-15T13:36:06.499Z,2364.00
2018-07-15T13:37:06.504Z,2404.00
2018-07-15T13:38:06.507Z,2460.00
2018-07-15T13:39:06.519Z,2496.00
2018-07-15T13:40:06.529Z,2496.00
2018-07-15T13:41:06.536Z,2524.00
2018-07-15T13:42:06.553Z,2540.00
2018-07-15T13:43:06.557Z,2536.00
2018-07-15T13:44:06.576Z,2532.00
2018-07-15T13:45:06.578Z,2564.00
2018-07-15T13:46:06.581Z,2568.00
2018-07-15T13:47:06.608Z,2580.00
2018-07-15T13:48:06.613Z,2588.00
2018-07-15T13:49:06.620Z,2556.00
2018-07-15T13:50:06.624Z,2552.00
2018-07-15T13:51:06.712Z,2532.00
2018-07-15T13:52:06.649Z,2544.00
2018-07-15T13:53:06.654Z,2548.00
2018-07-15T13:54:06.666Z,2572.00
2018-07-15T13:55:06.674Z,2612.00
2018-07-15T13:56:06.693Z,2632.00
2018-07-15T13:57:06.693Z,2636.00
2018-07-15T13:58:06.709Z,2740.00
2018-07-15T13:59:06.718Z,2788.00
2018-07-15T14:00:06.729Z,2796.00
2018-07-15T14:01:06.733Z,2804.00
2018-07-15T14:02:06.741Z,2812.00
2018-07-15T14:03:06.817Z,2820.00
2018-07-15T14:04:06.763Z,2836.00
2018-07-15T14:05:06.768Z,2700.00
2018-07-15T14:06:06.774Z,2680.00
2018-07-15T14:07:06.788Z,2664.00
2018-07-15T14:08:06.797Z,2628.00
2018-07-15T14:09:06.811Z,2608.00
2018-07-15T14:10:06.821Z,2600.00
2018-07-15T14:11:06.831Z,2592.00
2018-07-15T14:12:06.837Z,2580.00
2018-07-15T14:13:06.846Z,2520.00
2018-07-15T14:14:06.866Z,2444.00
2018-07-15T14:15:06.927Z,2380.00
2018-07-15T14:16:06.878Z,2288.00
2018-07-15T14:17:06.889Z,2244.00
2018-07-15T14:18:06.898Z,2224.00
2018-07-15T14:19:06.921Z,2196.00
2018-07-15T14:20:06.915Z,2168.00
2018-07-15T14:21:06.926Z,2152.00
2018-07-15T14:22:06.933Z,2132.00
2018-07-15T14:23:06.948Z,2132.00
2018-07-15T14:24:06.963Z,2136.00
2018-07-15T14:25:06.970Z,2136.00
2018-07-15T14:26:06.978Z,2112.00
2018-07-15T14:27:06.987Z,2044.00
2018-07-15T14:28:06.994Z,1900.00
2018-07-15T14:29:07.006Z,1748.00
2018-07-15T14:30:07.017Z,1612.00
2018-07-15T14:31:07.025Z,1488.00
2018-07-15T14:32:07.039Z,1412.00
2018-07-15T14:33:07.047Z,1336.00
2018-07-15T14:34:07.050Z,1260.00
2018-07-15T14:35:07.060Z,1200.00
2018-07-15T14:36:07.068Z,1140.00
2018-07-15T14:37:07.083Z,1068.00
2018-07-15T14:38:07.093Z,1004.00
2018-07-15T14:39:07.101Z,940.00
2018-07-15T14:40:07.113Z,908.00
2018-07-15T14:41:07.118Z,872.00
2018-07-15T14:42:07.151Z,836.00
2018-07-15T14:43:07.140Z,812.00
2018-07-15T14:44:07.160Z,796.00
2018-07-15T14:45:07.162Z,776.00
2018-07-15T14:46:07.163Z,760.00
2018-07-15T14:47:07.169Z,736.00
2018-07-15T14:48:07.183Z,708.00
2018-07-15T14:49:07.210Z,668.00
2018-07-15T14:50:07.212Z,648.00
2018-07-15T14:51:07.203Z,608.00
2018-07-15T14:52:07.226Z,560.00
2018-07-15T14:53:07.233Z,516.00
2018-07-15T14:54:07.235Z,492.00
2018-07-15T14:55:07.245Z,480.00
2018-07-15T14:56:07.277Z,484.00
2018-07-15T14:57:07.258Z,492.00
2018-07-15T14:58:07.263Z,508.00
2018-07-15T14:59:07.278Z,516.00
2018-07-15T15:00:07.291Z,528.00
2018-07-15T15:01:07.295Z,528.00
2018-07-15T15:02:07.368Z,512.00
2018-07-15T15:03:07.321Z,496.00
2018-07-15T15:04:07.329Z,492.00
2018-07-15T15:05:07.330Z,496.00
2018-07-15T15:06:07.337Z,504.00
2018-07-15T15:07:07.351Z,536.00
2018-07-15T15:08:07.371Z,576.00
2018-07-15T15:09:07.361Z,600.00
2018-07-15T15:10:07.384Z,664.00
2018-07-15T15:11:07.374Z,700.00
2018-07-15T15:12:07.386Z,724.00
2018-07-15T15:13:07.429Z,740.00
2018-07-15T15:14:07.406Z,756.00
2018-07-15T15:15:07.402Z,772.00
2018-07-15T15:16:07.419Z,796.00
2018-07-15T15:17:07.421Z,812.00
2018-07-15T15:18:07.425Z,820.00
2018-07-15T15:19:07.432Z,816.00
2018-07-15T15:20:07.438Z,804.00
2018-07-15T15:21:07.441Z,764.00
2018-07-15T15:22:07.446Z,732.00
2018-07-15T15:23:07.451Z,708.00
2018-07-15T15:24:07.482Z,672.00
2018-07-15T15:25:07.480Z,656.00
2018-07-15T15:26:07.465Z,640.00
2018-07-15T15:27:07.488Z,636.00